Lakeside Heights, Texas
Current Conditions -  °F | °C
As of 4:15 PM on Tuesday 21 Oct 2014 (Local Time) from KDZB Reporting Station
Clear Clear  
Wind Chill: 81°   Ceiling: Unl
Heat Index: 81°   Visibility: 10mi
Dew Point: 49°   Wind: 5mph
Humidity: 32%   Direction: 100°E
Pressure: 30.01"   Gusts: NA
Location:  30.6735°N, 98.4512°W
Report Text: KDZB 212115Z AUTO 10004KT 10SM CLR 27/09 A3001 RMK AO2 T02710092
Loading
Personal Weather Stations






























Interactive Weather Map
Tropical Storm Tracking
New forecast layout! Learn more

10-Day Weather Forecast

Advertisements
Track Severe Weather on mobile